sensor_id;sensor_type;location;lat;lon;timestamp;P1;durP1;ratioP1;P2;durP2;ratioP2
60880;SDS011;46729;43.010;24.320;2022-07-09T00:00:15;7.28;;;3.65;;
60880;SDS011;46729;43.010;24.320;2022-07-09T00:02:42;6.88;;;3.22;;
60880;SDS011;46729;43.010;24.320;2022-07-09T00:05:09;3.90;;;2.80;;
60880;SDS011;46729;43.010;24.320;2022-07-09T00:07:37;7.00;;;3.00;;
60880;SDS011;46729;43.010;24.320;2022-07-09T00:10:04;4.32;;;3.40;;
60880;SDS011;46729;43.010;24.320;2022-07-09T00:12:29;9.63;;;3.80;;
60880;SDS011;46729;43.010;24.320;2022-07-09T00:14:56;4.78;;;3.20;;
60880;SDS011;46729;43.010;24.320;2022-07-09T00:17:23;4.07;;;3.67;;
60880;SDS011;46729;43.010;24.320;2022-07-09T00:19:52;7.43;;;3.38;;
60880;SDS011;46729;43.010;24.320;2022-07-09T00:22:19;4.72;;;3.22;;
60880;SDS011;46729;43.010;24.320;2022-07-09T00:24:45;5.53;;;3.55;;
60880;SDS011;46729;43.010;24.320;2022-07-09T00:27:12;5.10;;;3.20;;
60880;SDS011;46729;43.010;24.320;2022-07-09T00:29:39;3.95;;;2.75;;
60880;SDS011;46729;43.010;24.320;2022-07-09T00:32:06;12.30;;;3.45;;
60880;SDS011;46729;43.010;24.320;2022-07-09T00:34:32;5.10;;;3.63;;
60880;SDS011;46729;43.010;24.320;2022-07-09T00:37:00;9.07;;;3.42;;
60880;SDS011;46729;43.010;24.320;2022-07-09T00:39:26;4.10;;;3.70;;
60880;SDS011;46729;43.010;24.320;2022-07-09T00:42:02;4.47;;;3.35;;
60880;SDS011;46729;43.010;24.320;2022-07-09T00:44:35;5.00;;;3.45;;
60880;SDS011;46729;43.010;24.320;2022-07-09T00:47:03;4.15;;;3.50;;
60880;SDS011;46729;43.010;24.320;2022-07-09T00:49:34;8.48;;;3.92;;
60880;SDS011;46729;43.010;24.320;2022-07-09T00:52:05;4.60;;;3.95;;
60880;SDS011;46729;43.010;24.320;2022-07-09T00:54:32;9.38;;;3.90;;
60880;SDS011;46729;43.010;24.320;2022-07-09T00:56:59;5.28;;;3.22;;
60880;SDS011;46729;43.010;24.320;2022-07-09T00:59:26;5.40;;;3.30;;
60880;SDS011;46729;43.010;24.320;2022-07-09T01:01:53;4.18;;;3.75;;
60880;SDS011;46729;43.010;24.320;2022-07-09T01:04:20;4.15;;;3.50;;
60880;SDS011;46729;43.010;24.320;2022-07-09T01:06:47;4.75;;;3.00;;
60880;SDS011;46729;43.010;24.320;2022-07-09T01:09:14;6.20;;;3.15;;
60880;SDS011;46729;43.010;24.320;2022-07-09T01:11:39;6.97;;;3.50;;
60880;SDS011;46729;43.010;24.320;2022-07-09T01:14:06;6.80;;;3.00;;
60880;SDS011;46729;43.010;24.320;2022-07-09T01:16:34;3.92;;;3.45;;
60880;SDS011;46729;43.010;24.320;2022-07-09T01:19:03;3.80;;;3.40;;
60880;SDS011;46729;43.010;24.320;2022-07-09T01:21:31;4.88;;;3.40;;
60880;SDS011;46729;43.010;24.320;2022-07-09T01:23:57;6.07;;;3.78;;
60880;SDS011;46729;43.010;24.320;2022-07-09T01:26:23;4.95;;;3.70;;
60880;SDS011;46729;43.010;24.320;2022-07-09T01:28:50;6.03;;;3.50;;
60880;SDS011;46729;43.010;24.320;2022-07-09T01:31:17;8.65;;;4.03;;
60880;SDS011;46729;43.010;24.320;2022-07-09T01:33:43;5.30;;;3.53;;
60880;SDS011;46729;43.010;24.320;2022-07-09T01:36:11;6.70;;;3.47;;
60880;SDS011;46729;43.010;24.320;2022-07-09T01:38:36;4.30;;;3.15;;
60880;SDS011;46729;43.010;24.320;2022-07-09T01:41:03;5.75;;;3.05;;
60880;SDS011;46729;43.010;24.320;2022-07-09T01:43:30;4.25;;;3.85;;
60880;SDS011;46729;43.010;24.320;2022-07-09T01:45:59;4.40;;;3.47;;
60880;SDS011;46729;43.010;24.320;2022-07-09T01:48:45;6.30;;;3.78;;
60880;SDS011;46729;43.010;24.320;2022-07-09T01:51:15;7.45;;;3.92;;
60880;SDS011;46729;43.010;24.320;2022-07-09T01:53:41;5.10;;;3.43;;
60880;SDS011;46729;43.010;24.320;2022-07-09T01:56:09;8.13;;;3.85;;
60880;SDS011;46729;43.010;24.320;2022-07-09T01:58:36;8.13;;;3.85;;
60880;SDS011;46729;43.010;24.320;2022-07-09T02:01:03;8.02;;;4.00;;
60880;SDS011;46729;43.010;24.320;2022-07-09T02:03:30;6.03;;;3.80;;
60880;SDS011;46729;43.010;24.320;2022-07-09T02:05:57;8.20;;;3.75;;
60880;SDS011;46729;43.010;24.320;2022-07-09T02:08:23;9.30;;;3.72;;
60880;SDS011;46729;43.010;24.320;2022-07-09T02:10:51;6.25;;;3.92;;
60880;SDS011;46729;43.010;24.320;2022-07-09T02:13:17;4.40;;;4.00;;
60880;SDS011;46729;43.010;24.320;2022-07-09T02:15:44;5.85;;;3.40;;
60880;SDS011;46729;43.010;24.320;2022-07-09T02:18:10;5.05;;;3.97;;
60880;SDS011;46729;43.010;24.320;2022-07-09T02:20:38;4.93;;;3.72;;
60880;SDS011;46729;43.010;24.320;2022-07-09T02:23:05;6.57;;;4.10;;
60880;SDS011;46729;43.010;24.320;2022-07-09T02:25:33;5.22;;;3.55;;
60880;SDS011;46729;43.010;24.320;2022-07-09T02:28:00;4.72;;;4.00;;
60880;SDS011;46729;43.010;24.320;2022-07-09T02:30:27;5.05;;;3.65;;
60880;SDS011;46729;43.010;24.320;2022-07-09T02:32:54;5.50;;;3.95;;
60880;SDS011;46729;43.010;24.320;2022-07-09T02:35:20;6.93;;;3.58;;
60880;SDS011;46729;43.010;24.320;2022-07-09T02:37:46;6.50;;;3.85;;
60880;SDS011;46729;43.010;24.320;2022-07-09T02:40:13;5.10;;;3.90;;
60880;SDS011;46729;43.010;24.320;2022-07-09T02:42:41;15.00;;;3.45;;
60880;SDS011;46729;43.010;24.320;2022-07-09T02:45:08;4.95;;;4.00;;
60880;SDS011;46729;43.010;24.320;2022-07-09T02:47:33;6.57;;;3.60;;
60880;SDS011;46729;43.010;24.320;2022-07-09T02:50:00;11.73;;;3.88;;
60880;SDS011;46729;43.010;24.320;2022-07-09T02:52:27;8.73;;;3.78;;
60880;SDS011;46729;43.010;24.320;2022-07-09T02:54:54;4.63;;;3.67;;
60880;SDS011;46729;43.010;24.320;2022-07-09T02:57:19;4.55;;;2.97;;
60880;SDS011;46729;43.010;24.320;2022-07-09T02:59:45;14.35;;;4.03;;
60880;SDS011;46729;43.010;24.320;2022-07-09T03:02:11;7.95;;;3.63;;
60880;SDS011;46729;43.010;24.320;2022-07-09T03:04:38;4.05;;;3.58;;
60880;SDS011;46729;43.010;24.320;2022-07-09T03:07:05;6.57;;;4.45;;
60880;SDS011;46729;43.010;24.320;2022-07-09T03:09:32;7.22;;;4.47;;
60880;SDS011;46729;43.010;24.320;2022-07-09T03:12:00;8.43;;;3.90;;
60880;SDS011;46729;43.010;24.320;2022-07-09T03:14:25;4.07;;;3.67;;
60880;SDS011;46729;43.010;24.320;2022-07-09T03:16:52;5.47;;;4.07;;
60880;SDS011;46729;43.010;24.320;2022-07-09T03:19:19;9.52;;;4.20;;
60880;SDS011;46729;43.010;24.320;2022-07-09T03:21:45;6.70;;;3.58;;
60880;SDS011;46729;43.010;24.320;2022-07-09T03:24:11;5.05;;;4.55;;
60880;SDS011;46729;43.010;24.320;2022-07-09T03:26:39;7.18;;;3.90;;
60880;SDS011;46729;43.010;24.320;2022-07-09T03:29:05;8.88;;;3.88;;
60880;SDS011;46729;43.010;24.320;2022-07-09T03:31:33;8.13;;;3.95;;
60880;SDS011;46729;43.010;24.320;2022-07-09T03:34:00;7.20;;;3.50;;
60880;SDS011;46729;43.010;24.320;2022-07-09T03:36:27;5.82;;;3.60;;
60880;SDS011;46729;43.010;24.320;2022-07-09T03:38:53;7.28;;;3.58;;
60880;SDS011;46729;43.010;24.320;2022-07-09T03:41:18;5.25;;;3.25;;
60880;SDS011;46729;43.010;24.320;2022-07-09T03:43:45;7.72;;;4.03;;
60880;SDS011;46729;43.010;24.320;2022-07-09T03:46:12;5.53;;;3.88;;
60880;SDS011;46729;43.010;24.320;2022-07-09T03:48:38;9.55;;;3.58;;
60880;SDS011;46729;43.010;24.320;2022-07-09T03:51:04;5.70;;;3.70;;
60880;SDS011;46729;43.010;24.320;2022-07-09T03:53:31;12.15;;;4.30;;
60880;SDS011;46729;43.010;24.320;2022-07-09T03:55:59;9.27;;;4.00;;
60880;SDS011;46729;43.010;24.320;2022-07-09T03:58:25;10.02;;;4.50;;
60880;SDS011;46729;43.010;24.320;2022-07-09T04:00:52;11.75;;;3.65;;
60880;SDS011;46729;43.010;24.320;2022-07-09T04:03:21;8.25;;;4.00;;
60880;SDS011;46729;43.010;24.320;2022-07-09T04:05:48;13.13;;;4.10;;
60880;SDS011;46729;43.010;24.320;2022-07-09T04:08:14;7.53;;;3.75;;
60880;SDS011;46729;43.010;24.320;2022-07-09T04:10:41;4.18;;;3.67;;
60880;SDS011;46729;43.010;24.320;2022-07-09T04:13:08;6.20;;;3.80;;
60880;SDS011;46729;43.010;24.320;2022-07-09T04:15:35;3.95;;;3.63;;
60880;SDS011;46729;43.010;24.320;2022-07-09T04:18:01;5.65;;;3.28;;
60880;SDS011;46729;43.010;24.320;2022-07-09T04:20:28;8.27;;;3.70;;
60880;SDS011;46729;43.010;24.320;2022-07-09T04:22:56;7.10;;;3.78;;
60880;SDS011;46729;43.010;24.320;2022-07-09T04:25:23;7.15;;;4.05;;
60880;SDS011;46729;43.010;24.320;2022-07-09T04:27:49;6.93;;;4.30;;
60880;SDS011;46729;43.010;24.320;2022-07-09T04:30:16;6.43;;;3.75;;
60880;SDS011;46729;43.010;24.320;2022-07-09T04:32:43;7.40;;;3.72;;
60880;SDS011;46729;43.010;24.320;2022-07-09T04:35:10;9.70;;;3.83;;
60880;SDS011;46729;43.010;24.320;2022-07-09T04:37:36;7.45;;;3.78;;
60880;SDS011;46729;43.010;24.320;2022-07-09T04:40:04;6.90;;;3.90;;
60880;SDS011;46729;43.010;24.320;2022-07-09T04:42:31;7.65;;;4.18;;
60880;SDS011;46729;43.010;24.320;2022-07-09T04:44:58;9.20;;;3.90;;
60880;SDS011;46729;43.010;24.320;2022-07-09T04:47:25;4.93;;;3.58;;
60880;SDS011;46729;43.010;24.320;2022-07-09T04:49:50;9.30;;;3.97;;
60880;SDS011;46729;43.010;24.320;2022-07-09T04:52:16;11.43;;;4.93;;
60880;SDS011;46729;43.010;24.320;2022-07-09T04:54:45;7.57;;;3.65;;
60880;SDS011;46729;43.010;24.320;2022-07-09T04:57:12;4.57;;;3.50;;
60880;SDS011;46729;43.010;24.320;2022-07-09T04:59:39;5.88;;;3.60;;
60880;SDS011;46729;43.010;24.320;2022-07-09T05:02:06;7.60;;;4.20;;
60880;SDS011;46729;43.010;24.320;2022-07-09T05:04:33;8.50;;;3.88;;
60880;SDS011;46729;43.010;24.320;2022-07-09T05:07:00;7.18;;;3.70;;
60880;SDS011;46729;43.010;24.320;2022-07-09T05:09:26;7.82;;;4.10;;
60880;SDS011;46729;43.010;24.320;2022-07-09T05:11:53;9.77;;;3.72;;
60880;SDS011;46729;43.010;24.320;2022-07-09T05:14:21;7.45;;;3.70;;
60880;SDS011;46729;43.010;24.320;2022-07-09T05:16:48;6.50;;;3.45;;
60880;SDS011;46729;43.010;24.320;2022-07-09T05:19:15;5.72;;;4.25;;
60880;SDS011;46729;43.010;24.320;2022-07-09T05:21:42;4.80;;;3.72;;
60880;SDS011;46729;43.010;24.320;2022-07-09T05:24:09;7.90;;;3.90;;
60880;SDS011;46729;43.010;24.320;2022-07-09T05:26:36;7.95;;;3.83;;
60880;SDS011;46729;43.010;24.320;2022-07-09T05:29:03;9.38;;;3.83;;
60880;SDS011;46729;43.010;24.320;2022-07-09T05:31:29;4.13;;;3.75;;
60880;SDS011;46729;43.010;24.320;2022-07-09T05:33:55;8.85;;;4.18;;
60880;SDS011;46729;43.010;24.320;2022-07-09T05:36:20;7.90;;;4.60;;
60880;SDS011;46729;43.010;24.320;2022-07-09T05:38:47;6.55;;;3.80;;
60880;SDS011;46729;43.010;24.320;2022-07-09T05:41:13;6.28;;;4.22;;
60880;SDS011;46729;43.010;24.320;2022-07-09T05:43:41;5.03;;;3.70;;
60880;SDS011;46729;43.010;24.320;2022-07-09T05:46:07;4.65;;;3.60;;
60880;SDS011;46729;43.010;24.320;2022-07-09T05:48:34;3.90;;;3.28;;
60880;SDS011;46729;43.010;24.320;2022-07-09T05:51:01;7.35;;;3.90;;
60880;SDS011;46729;43.010;24.320;2022-07-09T05:53:27;6.68;;;3.20;;
60880;SDS011;46729;43.010;24.320;2022-07-09T05:55:53;5.70;;;3.03;;
60880;SDS011;46729;43.010;24.320;2022-07-09T05:58:20;9.52;;;3.65;;
60880;SDS011;46729;43.010;24.320;2022-07-09T06:00:47;6.72;;;3.95;;
60880;SDS011;46729;43.010;24.320;2022-07-09T06:03:12;5.05;;;3.10;;
60880;SDS011;46729;43.010;24.320;2022-07-09T06:05:40;4.35;;;3.20;;
60880;SDS011;46729;43.010;24.320;2022-07-09T06:08:06;10.77;;;3.40;;
60880;SDS011;46729;43.010;24.320;2022-07-09T06:10:35;3.85;;;3.35;;
60880;SDS011;46729;43.010;24.320;2022-07-09T06:13:01;4.25;;;3.35;;
60880;SDS011;46729;43.010;24.320;2022-07-09T06:15:28;3.78;;;3.42;;
60880;SDS011;46729;43.010;24.320;2022-07-09T06:17:54;3.65;;;3.00;;
60880;SDS011;46729;43.010;24.320;2022-07-09T06:20:21;4.25;;;3.28;;
60880;SDS011;46729;43.010;24.320;2022-07-09T06:22:48;4.10;;;2.88;;
60880;SDS011;46729;43.010;24.320;2022-07-09T06:25:14;6.05;;;3.75;;
60880;SDS011;46729;43.010;24.320;2022-07-09T06:27:41;6.53;;;2.97;;
60880;SDS011;46729;43.010;24.320;2022-07-09T06:30:09;4.78;;;3.00;;
60880;SDS011;46729;43.010;24.320;2022-07-09T06:32:36;6.80;;;3.05;;
60880;SDS011;46729;43.010;24.320;2022-07-09T06:35:02;3.72;;;2.97;;
60880;SDS011;46729;43.010;24.320;2022-07-09T06:37:29;6.10;;;2.83;;
60880;SDS011;46729;43.010;24.320;2022-07-09T06:39:56;3.38;;;3.05;;
60880;SDS011;46729;43.010;24.320;2022-07-09T06:42:25;5.40;;;3.65;;
60880;SDS011;46729;43.010;24.320;2022-07-09T06:44:54;5.43;;;3.97;;
60880;SDS011;46729;43.010;24.320;2022-07-09T06:47:21;4.65;;;3.47;;
60880;SDS011;46729;43.010;24.320;2022-07-09T06:49:48;5.03;;;3.30;;
60880;SDS011;46729;43.010;24.320;2022-07-09T06:52:15;4.82;;;3.42;;
60880;SDS011;46729;43.010;24.320;2022-07-09T06:54:42;5.35;;;4.28;;
60880;SDS011;46729;43.010;24.320;2022-07-09T06:57:09;7.05;;;4.15;;
60880;SDS011;46729;43.010;24.320;2022-07-09T06:59:36;7.93;;;4.43;;
60880;SDS011;46729;43.010;24.320;2022-07-09T07:02:03;7.03;;;4.28;;
60880;SDS011;46729;43.010;24.320;2022-07-09T07:04:30;5.45;;;4.35;;
60880;SDS011;46729;43.010;24.320;2022-07-09T07:06:57;4.70;;;4.20;;
60880;SDS011;46729;43.010;24.320;2022-07-09T07:09:24;16.85;;;5.55;;
60880;SDS011;46729;43.010;24.320;2022-07-09T07:11:51;7.32;;;5.07;;
60880;SDS011;46729;43.010;24.320;2022-07-09T07:14:17;8.43;;;5.57;;
60880;SDS011;46729;43.010;24.320;2022-07-09T07:16:43;9.65;;;6.95;;
60880;SDS011;46729;43.010;24.320;2022-07-09T07:19:09;9.55;;;6.45;;
60880;SDS011;46729;43.010;24.320;2022-07-09T07:21:36;8.93;;;6.00;;
60880;SDS011;46729;43.010;24.320;2022-07-09T07:24:06;7.55;;;5.70;;
60880;SDS011;46729;43.010;24.320;2022-07-09T07:26:32;11.70;;;6.32;;
60880;SDS011;46729;43.010;24.320;2022-07-09T07:29:00;7.10;;;5.95;;
60880;SDS011;46729;43.010;24.320;2022-07-09T07:31:27;7.53;;;6.18;;
60880;SDS011;46729;43.010;24.320;2022-07-09T07:33:54;10.30;;;7.32;;
60880;SDS011;46729;43.010;24.320;2022-07-09T07:36:21;8.57;;;6.68;;
60880;SDS011;46729;43.010;24.320;2022-07-09T07:38:48;10.77;;;7.75;;
60880;SDS011;46729;43.010;24.320;2022-07-09T07:41:13;10.43;;;7.57;;
60880;SDS011;46729;43.010;24.320;2022-07-09T07:43:42;10.20;;;8.90;;
60880;SDS011;46729;43.010;24.320;2022-07-09T07:46:10;13.18;;;10.13;;
60880;SDS011;46729;43.010;24.320;2022-07-09T07:48:36;10.95;;;9.85;;
60880;SDS011;46729;43.010;24.320;2022-07-09T07:51:02;11.68;;;9.43;;
60880;SDS011;46729;43.010;24.320;2022-07-09T07:53:32;12.02;;;10.07;;
60880;SDS011;46729;43.010;24.320;2022-07-09T07:56:01;12.43;;;8.75;;
60880;SDS011;46729;43.010;24.320;2022-07-09T07:58:31;12.05;;;9.77;;
60880;SDS011;46729;43.010;24.320;2022-07-09T08:00:57;11.23;;;10.13;;
60880;SDS011;46729;43.010;24.320;2022-07-09T08:03:23;12.68;;;11.13;;
60880;SDS011;46729;43.010;24.320;2022-07-09T08:05:50;12.95;;;11.63;;
60880;SDS011;46729;43.010;24.320;2022-07-09T08:08:15;13.07;;;11.43;;
60880;SDS011;46729;43.010;24.320;2022-07-09T08:10:43;13.65;;;12.35;;
60880;SDS011;46729;43.010;24.320;2022-07-09T08:13:11;16.08;;;12.65;;
60880;SDS011;46729;43.010;24.320;2022-07-09T08:15:37;17.67;;;13.23;;
60880;SDS011;46729;43.010;24.320;2022-07-09T08:18:05;13.95;;;12.48;;
60880;SDS011;46729;43.010;24.320;2022-07-09T08:20:34;15.18;;;13.02;;
60880;SDS011;46729;43.010;24.320;2022-07-09T08:23:03;14.82;;;13.15;;
60880;SDS011;46729;43.010;24.320;2022-07-09T08:25:30;18.90;;;14.05;;
60880;SDS011;46729;43.010;24.320;2022-07-09T08:27:57;16.25;;;14.48;;
60880;SDS011;46729;43.010;24.320;2022-07-09T08:30:24;14.77;;;13.25;;
60880;SDS011;46729;43.010;24.320;2022-07-09T08:32:51;14.82;;;13.43;;
60880;SDS011;46729;43.010;24.320;2022-07-09T08:35:18;21.80;;;15.20;;
60880;SDS011;46729;43.010;24.320;2022-07-09T08:37:45;16.42;;;14.45;;
60880;SDS011;46729;43.010;24.320;2022-07-09T08:40:14;17.95;;;15.57;;
60880;SDS011;46729;43.010;24.320;2022-07-09T08:42:41;18.98;;;14.38;;
60880;SDS011;46729;43.010;24.320;2022-07-09T08:45:07;13.48;;;12.02;;
60880;SDS011;46729;43.010;24.320;2022-07-09T08:47:38;15.52;;;12.57;;
60880;SDS011;46729;43.010;24.320;2022-07-09T08:50:09;14.63;;;13.13;;
60880;SDS011;46729;43.010;24.320;2022-07-09T08:52:37;13.57;;;12.07;;
60880;SDS011;46729;43.010;24.320;2022-07-09T08:55:10;13.07;;;11.75;;
60880;SDS011;46729;43.010;24.320;2022-07-09T08:57:39;14.48;;;11.52;;
60880;SDS011;46729;43.010;24.320;2022-07-09T09:00:06;14.95;;;11.25;;
60880;SDS011;46729;43.010;24.320;2022-07-09T09:02:36;15.68;;;11.23;;
60880;SDS011;46729;43.010;24.320;2022-07-09T09:05:11;14.98;;;11.18;;
60880;SDS011;46729;43.010;24.320;2022-07-09T09:07:41;11.55;;;10.45;;
60880;SDS011;46729;43.010;24.320;2022-07-09T09:10:23;10.30;;;9.23;;
60880;SDS011;46729;43.010;24.320;2022-07-09T09:13:00;9.77;;;8.55;;
60880;SDS011;46729;43.010;24.320;2022-07-09T09:15:28;9.48;;;8.57;;
60880;SDS011;46729;43.010;24.320;2022-07-09T09:17:56;10.07;;;8.25;;
60880;SDS011;46729;43.010;24.320;2022-07-09T09:20:23;8.75;;;7.85;;
60880;SDS011;46729;43.010;24.320;2022-07-09T09:22:51;8.40;;;7.60;;
60880;SDS011;46729;43.010;24.320;2022-07-09T09:25:28;10.90;;;7.32;;
60880;SDS011;46729;43.010;24.320;2022-07-09T09:27:56;9.45;;;7.88;;
60880;SDS011;46729;43.010;24.320;2022-07-09T09:30:25;7.70;;;6.63;;
60880;SDS011;46729;43.010;24.320;2022-07-09T09:32:56;8.80;;;7.15;;
60880;SDS011;46729;43.010;24.320;2022-07-09T09:35:27;9.98;;;6.38;;
60880;SDS011;46729;43.010;24.320;2022-07-09T09:37:58;9.48;;;6.32;;
60880;SDS011;46729;43.010;24.320;2022-07-09T09:40:25;8.60;;;6.35;;
60880;SDS011;46729;43.010;24.320;2022-07-09T09:42:52;9.48;;;6.30;;
60880;SDS011;46729;43.010;24.320;2022-07-09T09:45:19;10.27;;;6.38;;
60880;SDS011;46729;43.010;24.320;2022-07-09T09:47:49;9.60;;;6.82;;
60880;SDS011;46729;43.010;24.320;2022-07-09T09:50:23;10.27;;;5.50;;
60880;SDS011;46729;43.010;24.320;2022-07-09T09:52:51;7.97;;;5.78;;
60880;SDS011;46729;43.010;24.320;2022-07-09T09:55:21;8.00;;;5.40;;
60880;SDS011;46729;43.010;24.320;2022-07-09T09:57:48;7.20;;;6.47;;
60880;SDS011;46729;43.010;24.320;2022-07-09T10:00:14;6.10;;;5.50;;
60880;SDS011;46729;43.010;24.320;2022-07-09T10:02:45;7.45;;;5.53;;
60880;SDS011;46729;43.010;24.320;2022-07-09T10:05:12;11.93;;;6.28;;
60880;SDS011;46729;43.010;24.320;2022-07-09T10:07:43;6.10;;;5.22;;
60880;SDS011;46729;43.010;24.320;2022-07-09T10:10:20;6.25;;;5.35;;
60880;SDS011;46729;43.010;24.320;2022-07-09T10:12:47;7.22;;;5.32;;
60880;SDS011;46729;43.010;24.320;2022-07-09T10:15:20;10.25;;;5.35;;
60880;SDS011;46729;43.010;24.320;2022-07-09T10:17:52;7.47;;;5.78;;
60880;SDS011;46729;43.010;24.320;2022-07-09T10:20:35;7.35;;;5.03;;
60880;SDS011;46729;43.010;24.320;2022-07-09T10:23:01;7.65;;;5.03;;
60880;SDS011;46729;43.010;24.320;2022-07-09T10:25:30;5.35;;;4.80;;
60880;SDS011;46729;43.010;24.320;2022-07-09T10:28:16;9.93;;;4.70;;
60880;SDS011;46729;43.010;24.320;2022-07-09T10:31:10;8.88;;;4.65;;
60880;SDS011;46729;43.010;24.320;2022-07-09T10:33:40;7.13;;;5.15;;
60880;SDS011;46729;43.010;24.320;2022-07-09T10:36:16;9.07;;;5.10;;
60880;SDS011;46729;43.010;24.320;2022-07-09T10:38:52;7.97;;;5.20;;
60880;SDS011;46729;43.010;24.320;2022-07-09T10:41:21;7.60;;;4.93;;
60880;SDS011;46729;43.010;24.320;2022-07-09T10:43:51;8.38;;;4.80;;
60880;SDS011;46729;43.010;24.320;2022-07-09T10:46:17;6.13;;;5.28;;
60880;SDS011;46729;43.010;24.320;2022-07-09T10:48:46;6.05;;;4.70;;
60880;SDS011;46729;43.010;24.320;2022-07-09T10:51:19;5.43;;;4.53;;
60880;SDS011;46729;43.010;24.320;2022-07-09T10:53:47;7.60;;;5.13;;
60880;SDS011;46729;43.010;24.320;2022-07-09T10:56:20;5.97;;;4.85;;
60880;SDS011;46729;43.010;24.320;2022-07-09T10:58:48;6.32;;;4.18;;
60880;SDS011;46729;43.010;24.320;2022-07-09T11:01:20;5.63;;;4.90;;
60880;SDS011;46729;43.010;24.320;2022-07-09T11:03:50;6.53;;;4.78;;
60880;SDS011;46729;43.010;24.320;2022-07-09T11:06:18;13.98;;;6.82;;
60880;SDS011;46729;43.010;24.320;2022-07-09T11:08:43;11.02;;;6.57;;
60880;SDS011;46729;43.010;24.320;2022-07-09T11:11:10;10.40;;;6.15;;
60880;SDS011;46729;43.010;24.320;2022-07-09T11:13:37;10.38;;;6.50;;
60880;SDS011;46729;43.010;24.320;2022-07-09T11:16:03;12.60;;;7.05;;
60880;SDS011;46729;43.010;24.320;2022-07-09T11:18:30;10.20;;;6.47;;
60880;SDS011;46729;43.010;24.320;2022-07-09T11:20:55;12.52;;;6.20;;
60880;SDS011;46729;43.010;24.320;2022-07-09T11:23:21;9.55;;;6.78;;
60880;SDS011;46729;43.010;24.320;2022-07-09T11:25:48;13.90;;;6.20;;
60880;SDS011;46729;43.010;24.320;2022-07-09T11:28:21;10.43;;;7.07;;
60880;SDS011;46729;43.010;24.320;2022-07-09T11:31:03;10.63;;;6.75;;
60880;SDS011;46729;43.010;24.320;2022-07-09T11:33:32;9.52;;;7.03;;
60880;SDS011;46729;43.010;24.320;2022-07-09T11:36:19;11.20;;;6.70;;
60880;SDS011;46729;43.010;24.320;2022-07-09T11:38:52;9.25;;;7.10;;
60880;SDS011;46729;43.010;24.320;2022-07-09T11:41:20;9.60;;;6.47;;
60880;SDS011;46729;43.010;24.320;2022-07-09T11:43:50;8.20;;;7.15;;
60880;SDS011;46729;43.010;24.320;2022-07-09T11:46:18;10.07;;;7.55;;
60880;SDS011;46729;43.010;24.320;2022-07-09T11:48:54;9.02;;;7.00;;
60880;SDS011;46729;43.010;24.320;2022-07-09T11:51:33;8.30;;;7.28;;
60880;SDS011;46729;43.010;24.320;2022-07-09T11:54:02;9.57;;;7.10;;
60880;SDS011;46729;43.010;24.320;2022-07-09T11:56:44;8.20;;;7.40;;
60880;SDS011;46729;43.010;24.320;2022-07-09T11:59:12;8.02;;;7.22;;
60880;SDS011;46729;43.010;24.320;2022-07-09T12:01:41;7.93;;;6.22;;
60880;SDS011;46729;43.010;24.320;2022-07-09T12:04:17;9.23;;;7.53;;
60880;SDS011;46729;43.010;24.320;2022-07-09T12:06:49;9.05;;;7.40;;
60880;SDS011;46729;43.010;24.320;2022-07-09T12:09:38;7.05;;;6.35;;
60880;SDS011;46729;43.010;24.320;2022-07-09T12:12:05;6.30;;;5.65;;
60880;SDS011;46729;43.010;24.320;2022-07-09T12:14:31;6.68;;;5.90;;
60880;SDS011;46729;43.010;24.320;2022-07-09T12:16:57;5.82;;;5.25;;
60880;SDS011;46729;43.010;24.320;2022-07-09T12:19:23;6.55;;;5.82;;
60880;SDS011;46729;43.010;24.320;2022-07-09T12:21:49;8.13;;;6.38;;
60880;SDS011;46729;43.010;24.320;2022-07-09T12:24:17;7.40;;;6.40;;
60880;SDS011;46729;43.010;24.320;2022-07-09T12:26:44;6.18;;;5.65;;
60880;SDS011;46729;43.010;24.320;2022-07-09T12:29:13;6.68;;;5.60;;
60880;SDS011;46729;43.010;24.320;2022-07-09T12:31:42;6.15;;;5.55;;
60880;SDS011;46729;43.010;24.320;2022-07-09T12:34:08;9.30;;;6.50;;
60880;SDS011;46729;43.010;24.320;2022-07-09T12:36:33;8.32;;;5.10;;
60880;SDS011;46729;43.010;24.320;2022-07-09T12:39:00;7.38;;;4.88;;
60880;SDS011;46729;43.010;24.320;2022-07-09T12:41:26;9.15;;;5.28;;
60880;SDS011;46729;43.010;24.320;2022-07-09T12:43:53;6.40;;;4.95;;
60880;SDS011;46729;43.010;24.320;2022-07-09T12:46:20;6.82;;;5.22;;
60880;SDS011;46729;43.010;24.320;2022-07-09T12:48:46;6.25;;;4.95;;
60880;SDS011;46729;43.010;24.320;2022-07-09T12:51:12;5.90;;;4.88;;
60880;SDS011;46729;43.010;24.320;2022-07-09T12:53:38;5.50;;;4.95;;
60880;SDS011;46729;43.010;24.320;2022-07-09T12:56:05;6.28;;;4.90;;
60880;SDS011;46729;43.010;24.320;2022-07-09T12:58:32;8.43;;;5.35;;
60880;SDS011;46729;43.010;24.320;2022-07-09T13:00:58;10.50;;;4.70;;
60880;SDS011;46729;43.010;24.320;2022-07-09T13:03:25;8.25;;;4.93;;
60880;SDS011;46729;43.010;24.320;2022-07-09T13:05:52;8.55;;;4.70;;
60880;SDS011;46729;43.010;24.320;2022-07-09T13:08:19;6.35;;;5.30;;
60880;SDS011;46729;43.010;24.320;2022-07-09T13:10:45;7.85;;;5.03;;
60880;SDS011;46729;43.010;24.320;2022-07-09T13:13:13;6.53;;;5.68;;
60880;SDS011;46729;43.010;24.320;2022-07-09T13:15:41;11.80;;;5.32;;
60880;SDS011;46729;43.010;24.320;2022-07-09T13:18:08;8.65;;;6.05;;
60880;SDS011;46729;43.010;24.320;2022-07-09T13:20:35;11.98;;;6.00;;
60880;SDS011;46729;43.010;24.320;2022-07-09T13:23:03;6.45;;;5.68;;
60880;SDS011;46729;43.010;24.320;2022-07-09T13:25:30;8.93;;;6.03;;
60880;SDS011;46729;43.010;24.320;2022-07-09T13:27:57;7.47;;;5.88;;
60880;SDS011;46729;43.010;24.320;2022-07-09T13:30:23;6.72;;;5.90;;
60880;SDS011;46729;43.010;24.320;2022-07-09T13:32:49;8.02;;;5.38;;
60880;SDS011;46729;43.010;24.320;2022-07-09T13:35:16;8.68;;;6.55;;
60880;SDS011;46729;43.010;24.320;2022-07-09T13:37:42;10.07;;;6.03;;
60880;SDS011;46729;43.010;24.320;2022-07-09T13:40:07;11.75;;;6.20;;
60880;SDS011;46729;43.010;24.320;2022-07-09T13:42:34;7.88;;;6.72;;
60880;SDS011;46729;43.010;24.320;2022-07-09T13:45:00;7.75;;;5.68;;
60880;SDS011;46729;43.010;24.320;2022-07-09T13:47:27;8.00;;;5.47;;
60880;SDS011;46729;43.010;24.320;2022-07-09T13:49:53;9.90;;;5.90;;
60880;SDS011;46729;43.010;24.320;2022-07-09T13:52:21;11.77;;;6.60;;
60880;SDS011;46729;43.010;24.320;2022-07-09T13:54:47;8.38;;;5.20;;
60880;SDS011;46729;43.010;24.320;2022-07-09T13:57:14;5.65;;;5.05;;
60880;SDS011;46729;43.010;24.320;2022-07-09T13:59:40;6.22;;;5.25;;
60880;SDS011;46729;43.010;24.320;2022-07-09T14:02:06;6.72;;;5.05;;
60880;SDS011;46729;43.010;24.320;2022-07-09T14:04:33;4.82;;;4.32;;
60880;SDS011;46729;43.010;24.320;2022-07-09T14:06:58;7.38;;;4.82;;
60880;SDS011;46729;43.010;24.320;2022-07-09T14:09:25;9.55;;;5.13;;
60880;SDS011;46729;43.010;24.320;2022-07-09T14:11:52;5.53;;;4.82;;
60880;SDS011;46729;43.010;24.320;2022-07-09T14:14:21;5.00;;;4.03;;
60880;SDS011;46729;43.010;24.320;2022-07-09T14:16:46;8.52;;;4.55;;
60880;SDS011;46729;43.010;24.320;2022-07-09T14:19:12;8.10;;;4.95;;
60880;SDS011;46729;43.010;24.320;2022-07-09T14:21:38;6.35;;;5.03;;
60880;SDS011;46729;43.010;24.320;2022-07-09T14:24:05;6.47;;;5.65;;
60880;SDS011;46729;43.010;24.320;2022-07-09T14:26:31;7.68;;;5.07;;
60880;SDS011;46729;43.010;24.320;2022-07-09T14:28:57;6.60;;;5.43;;
60880;SDS011;46729;43.010;24.320;2022-07-09T14:31:23;7.60;;;5.03;;
60880;SDS011;46729;43.010;24.320;2022-07-09T14:33:50;4.30;;;3.33;;